Time;durP1;ratioP1;P1;durP2;ratioP2;P2;SDS_P1;SDS_P2;PMS_P1;PMS_P2;Temp;Humidity;BMP_temperature;BMP_pressure;BME280_temperature;BME280_humidity;BME280_pressure;Samples;Min_cycle;Max_cycle;Signal;HPM_P1;HPM_P2
2023/03/21 00:00:29;;;;;;;18.50;11.90;;;;;;;8.96;100.00;101685.72;6243874;23;20018;-74
2023/03/21 00:02:54;;;;;;;20.42;11.43;;;;;;;8.95;100.00;101678.91;6243541;23;19996;-76
2023/03/21 00:05:20;;;;;;;16.58;11.00;;;;;;;8.93;100.00;101670.38;6243624;23;20001;-75
2023/03/21 00:07:46;;;;;;;20.38;11.63;;;;;;;8.94;100.00;101674.63;6243762;23;20004;-74
2023/03/21 00:10:11;;;;;;;19.65;10.70;;;;;;;8.78;100.00;101643.53;6243640;23;20012;-76
2023/03/21 00:12:37;;;;;;;20.45;12.52;;;;;;;8.93;100.00;101683.25;6243596;23;20430;-76
2023/03/21 00:15:11;;;;;;;18.27;11.30;;;;;;;8.69;100.00;101637.94;6243668;23;20011;-76
2023/03/21 00:17:38;;;;;;;15.48;11.38;;;;;;;8.87;100.00;101668.06;6243456;23;20004;-75
2023/03/21 00:20:05;;;;;;;19.00;12.10;;;;;;;8.69;100.00;101646.50;6243680;23;20000;-76
2023/03/21 00:22:34;;;;;;;21.90;12.45;;;;;;;8.82;100.00;101657.13;6243432;23;20035;-76
2023/03/21 00:24:59;;;;;;;19.13;12.20;;;;;;;8.80;100.00;101652.03;6196796;23;1079500;-76
2023/03/21 00:27:24;;;;;;;19.88;11.80;;;;;;;8.64;100.00;101632.97;6245118;23;20017;-77
2023/03/21 00:29:50;;;;;;;20.95;11.57;;;;;;;8.75;100.00;101650.53;6218199;23;20414;-76
2023/03/21 00:32:16;;;;;;;19.52;12.38;;;;;;;8.63;100.00;101636.44;6244795;23;20330;-75
2023/03/21 00:34:42;;;;;;;20.38;12.20;;;;;;;8.74;100.00;101654.03;6244928;23;20438;-76
2023/03/21 00:37:08;;;;;;;21.70;12.35;;;;;;;8.71;100.00;101643.88;6245097;23;20027;-74
2023/03/21 00:39:34;;;;;;;19.98;12.02;;;;;;;8.70;100.00;101637.03;6245643;23;20008;-76
2023/03/21 00:42:00;;;;;;;20.48;13.30;;;;;;;8.71;100.00;101638.72;6219361;23;20008;-74
2023/03/21 00:44:26;;;;;;;24.45;11.90;;;;;;;8.70;100.00;101637.88;6246738;23;20023;-75
2023/03/21 00:46:51;;;;;;;22.45;12.38;;;;;;;8.71;100.00;101634.41;6246710;23;20004;-74
2023/03/21 00:49:19;;;;;;;26.65;13.05;;;;;;;8.71;100.00;101636.13;6246731;23;20004;-75
2023/03/21 00:51:45;;;;;;;22.20;12.52;;;;;;;8.68;100.00;101629.38;6246780;23;20004;-73
2023/03/21 00:54:11;;;;;;;21.73;11.93;;;;;;;8.58;100.00;101617.81;6246474;23;20011;-74
2023/03/21 00:56:37;;;;;;;21.23;12.85;;;;;;;8.59;100.00;101627.19;6246618;23;20000;-76
2023/03/21 00:59:03;;;;;;;18.80;13.20;;;;;;;8.50;100.00;101617.28;6246612;23;20054;-76
2023/03/21 01:01:30;;;;;;;22.25;13.27;;;;;;;8.43;100.00;101606.41;6246449;23;20426;-76
2023/03/21 01:04:06;;;;;;;21.95;13.18;;;;;;;8.54;100.00;101618.81;6246738;23;20011;-76
2023/03/21 01:06:38;;;;;;;20.52;13.63;;;;;;;8.57;100.00;101619.53;6246581;23;20004;-75
2023/03/21 01:09:04;;;;;;;23.58;13.90;;;;;;;8.57;100.00;101608.41;6246474;23;20004;-74
2023/03/21 01:11:29;;;;;;;22.80;14.18;;;;;;;8.53;100.00;101596.56;6246798;23;20116;-74
2023/03/21 01:13:55;;;;;;;20.17;12.45;;;;;;;8.59;100.00;101604.03;6220057;23;20428;-75
2023/03/21 01:16:21;;;;;;;21.50;12.48;;;;;;;8.60;100.00;101601.38;6246778;23;20027;-75
2023/03/21 01:18:46;;;;;;;18.02;11.75;;;;;;;8.59;100.00;101599.72;6246495;23;20004;-77
2023/03/21 01:21:13;;;;;;;19.60;12.05;;;;;;;8.45;100.00;101567.72;6219773;23;20027;-75
2023/03/21 01:23:40;;;;;;;21.42;12.82;;;;;;;8.59;100.00;101588.59;6246357;23;20399;-76
2023/03/21 01:26:07;;;;;;;20.27;12.18;;;;;;;8.50;100.00;101571.78;6245941;23;20323;-75
2023/03/21 01:28:34;;;;;;;20.00;12.00;;;;;;;8.58;100.00;101579.19;6246749;23;20008;-75
2023/03/21 01:31:01;;;;;;;21.63;11.23;;;;;;;8.67;100.00;101583.13;6246597;23;20000;-76
2023/03/21 01:33:28;;;;;;;19.83;11.52;;;;;;;8.68;100.00;101584.78;6246108;23;20004;-75
2023/03/21 01:35:53;;;;;;;21.38;11.77;;;;;;;8.69;100.00;101583.88;6246189;23;20043;-76
2023/03/21 01:38:19;;;;;;;20.63;10.88;;;;;;;8.58;100.00;101562.00;6245993;23;20004;-76
2023/03/21 01:40:46;;;;;;;21.08;11.45;;;;;;;8.66;100.00;101568.56;6246017;23;20000;-75
2023/03/21 01:43:26;;;;;;;23.35;11.93;;;;;;;8.63;100.00;101561.78;6246235;23;20461;-76
2023/03/21 01:46:10;;;;;;;22.63;11.95;;;;;;;8.72;100.00;101573.44;6246096;23;20001;-75
2023/03/21 01:48:41;;;;;;;19.38;10.50;;;;;;;8.69;100.00;101564.13;6245890;23;20048;-75
2023/03/21 01:51:08;;;;;;;23.20;11.73;;;;;;;8.48;100.00;101526.44;6245893;23;20003;-75
2023/03/21 01:53:39;;;;;;;17.75;10.48;;;;;;;8.65;100.00;101549.69;6246145;23;20037;-76
2023/03/21 01:56:12;;;;;;;19.20;10.65;;;;;;;8.69;100.00;101563.28;6246189;23;20000;-75
2023/03/21 01:58:40;;;;;;;19.95;10.20;;;;;;;8.66;100.00;101556.53;6246039;23;20430;-71
2023/03/21 02:01:07;;;;;;;18.52;10.70;;;;;;;8.68;100.00;101549.56;6246181;23;20419;-74
2023/03/21 02:03:36;;;;;;;20.48;10.20;;;;;;;8.75;100.00;101558.72;6218110;23;20008;-74
2023/03/21 02:06:11;;;;;;;17.52;10.38;;;;;;;8.75;100.00;101552.69;6246097;23;20011;-75
2023/03/21 02:08:36;;;;;;;16.80;9.90;;;;;;;8.69;100.00;101540.94;6246424;23;20058;-72
2023/03/21 02:11:02;;;;;;;18.15;10.25;;;;;;;8.60;100.00;101525.88;6246266;23;20353;-75
2023/03/21 02:13:28;;;;;;;16.75;9.93;;;;;;;8.71;100.00;101541.69;6246450;23;20003;-75
2023/03/21 02:16:12;;;;;;;19.85;9.65;;;;;;;8.75;100.00;101543.25;6246017;23;20457;-73
2023/03/21 02:18:53;;;;;;;18.05;9.55;;;;;;;8.62;100.00;101521.50;6245652;23;20004;-73
2023/03/21 02:21:33;;;;;;;16.93;8.73;;;;;;;8.76;100.00;101539.78;6218954;23;20429;-74
2023/03/21 02:24:07;;;;;;;19.70;9.60;;;;;;;8.74;100.00;101536.41;6246168;23;20611;-73
2023/03/21 02:26:44;;;;;;;22.27;10.18;;;;;;;8.74;100.00;101523.53;6245646;23;20016;-73
2023/03/21 02:29:46;;;;;;;17.67;8.85;;;;;;;8.77;100.00;101530.31;6245979;23;20004;-74
2023/03/21 02:32:24;;;;;;;16.35;8.82;;;;;;;8.74;100.00;101526.09;6245867;23;20091;-74
2023/03/21 02:35:10;;;;;;;16.60;8.55;;;;;;;8.75;100.00;101520.09;6245320;23;20414;-76
2023/03/21 02:37:43;;;;;;;14.88;8.60;;;;;;;8.72;100.00;101515.03;6245760;23;20038;-77
2023/03/21 02:40:17;;;;;;;16.98;8.57;;;;;;;8.72;100.00;101511.63;6245625;23;20005;-76
2023/03/21 02:42:53;;;;;;;16.73;8.70;;;;;;;8.71;100.00;101508.22;6245893;23;20014;-75
2023/03/21 02:45:24;;;;;;;14.73;8.38;;;;;;;8.72;100.00;101509.91;6245216;23;20012;-76
2023/03/21 02:47:54;;;;;;;17.27;8.60;;;;;;;8.73;100.00;101513.31;6245529;23;20430;-76
2023/03/21 02:50:36;;;;;;;16.27;8.60;;;;;;;8.73;100.00;101516.72;6218418;23;20016;-76
2023/03/21 02:53:02;;;;;;;;;;;;;;;8.77;100.00;101512.28;6246180;23;20457;-76
2023/03/21 02:55:31;;;;;;;15.98;8.38;;;;;;;8.70;100.00;101506.56;6245452;23;20380;-75
2023/03/21 02:57:58;;;;;;;14.75;8.52;;;;;;;8.67;100.00;101504.13;6245827;23;20026;-76
2023/03/21 03:00:30;;;;;;;16.42;9.02;;;;;;;8.61;100.00;101492.34;6245551;23;20311;-76
2023/03/21 03:02:55;;;;;;;15.52;8.98;;;;;;;8.67;100.00;101500.72;6245065;23;20005;-76
2023/03/21 03:05:26;;;;;;;17.40;9.10;;;;;;;8.56;100.00;101494.31;6245154;23;20007;-75
2023/03/21 03:08:09;;;;;;;15.05;8.80;;;;;;;8.62;100.00;101498.34;6245471;23;20007;-76
2023/03/21 03:10:53;;;;;;;18.65;8.88;;;;;;;8.46;100.00;101469.88;6245299;23;20011;-72
2023/03/21 03:13:26;;;;;;;16.85;9.02;;;;;;;8.59;100.00;101498.47;6245574;23;20038;-73
2023/03/21 03:16:26;;;;;;;15.10;8.88;;;;;;;8.59;100.00;101490.75;6245412;23;20436;-76
2023/03/21 03:18:58;;;;;;;13.98;8.10;;;;;;;8.53;100.00;101485.84;6245497;23;20008;-75
2023/03/21 03:21:26;;;;;;;;;;;;;;;8.59;100.00;101489.00;6245875;23;20437;-76
2023/03/21 03:23:57;;;;;;;16.73;8.90;;;;;;;8.56;100.00;101488.31;6218488;23;19907;-76
2023/03/21 03:26:29;;;;;;;;;;;;;;;8.59;100.00;101483.88;6245602;23;20038;-76
2023/03/21 03:29:00;;;;;;;17.50;8.45;;;;;;;8.47;100.00;101470.72;6245404;23;19907;-75
2023/03/21 03:31:30;;;;;;;18.85;8.98;;;;;;;8.43;100.00;101464.00;6245446;23;20000;-74
2023/03/21 03:34:02;;;;;;;16.65;9.07;;;;;;;8.40;100.00;101459.84;6245016;23;20008;-75
2023/03/21 03:36:35;;;;;;;15.88;9.20;;;;;;;8.54;100.00;101485.78;6245237;23;20083;-73
2023/03/21 03:39:07;;;;;;;15.23;9.25;;;;;;;8.54;100.00;101478.06;6245212;23;20008;-76
2023/03/21 03:41:40;;;;;;;17.40;8.90;;;;;;;8.52;100.00;101468.75;6245441;23;20004;-76
2023/03/21 03:44:08;;;;;;;18.10;8.73;;;;;;;8.54;100.00;101474.66;6245298;23;20007;-76
2023/03/21 03:46:41;;;;;;;15.40;8.18;;;;;;;8.54;100.00;101472.09;6245061;23;20028;-75
2023/03/21 03:49:12;;;;;;;19.67;9.98;;;;;;;8.53;100.00;101475.56;6245150;23;20004;-76
2023/03/21 03:51:46;;;;;;;14.55;8.77;;;;;;;8.54;100.00;101472.91;6245095;23;20016;-74
2023/03/21 03:54:16;;;;;;;15.32;8.65;;;;;;;8.53;100.00;101465.25;6245166;23;20004;-75
2023/03/21 03:56:42;;;;;;;25.92;9.20;;;;;;;8.54;100.00;101461.78;6245214;23;20330;-76
2023/03/21 03:59:08;;;;;;;14.15;8.30;;;;;;;8.37;100.00;101438.56;6244969;23;20008;-74
2023/03/21 04:01:34;;;;;;;15.73;9.10;;;;;;;8.54;100.00;101469.50;6244885;23;20011;-74
2023/03/21 04:04:00;;;;;;;16.45;8.68;;;;;;;8.53;100.00;101465.25;6245521;23;20004;-75
2023/03/21 04:06:27;;;;;;;17.92;8.98;;;;;;;8.46;100.00;101459.56;6245037;23;20083;-75
2023/03/21 04:08:56;;;;;;;20.13;9.88;;;;;;;8.53;100.00;101467.84;6245247;23;20011;-75
2023/03/21 04:11:22;;;;;;;16.48;9.43;;;;;;;8.41;100.00;101434.94;6245421;23;20000;-76
2023/03/21 04:13:48;;;;;;;15.50;9.07;;;;;;;8.41;100.00;101440.06;6245726;23;20004;-76
2023/03/21 04:16:13;;;;;;;18.65;8.70;;;;;;;8.45;100.00;101442.44;6247190;23;20074;-74
2023/03/21 04:18:41;;;;;;;17.00;8.65;;;;;;;8.52;100.00;101451.56;6246814;23;20039;-75
2023/03/21 04:21:09;;;;;;;14.65;8.23;;;;;;;8.51;100.00;101452.47;6246874;23;20004;-75
2023/03/21 04:23:38;;;;;;;17.98;9.55;;;;;;;8.52;100.00;101450.72;6246798;23;19996;-72
2023/03/21 04:26:05;;;;;;;18.95;9.23;;;;;;;8.42;100.00;101432.28;6246828;22;20012;-75
2023/03/21 04:28:32;;;;;;;17.35;9.30;;;;;;;8.54;100.00;101454.91;6246339;23;20011;-74
2023/03/21 04:30:58;;;;;;;19.13;9.60;;;;;;;8.42;100.00;101437.44;6247223;23;20004;-76
2023/03/21 04:33:26;;;;;;;17.60;8.82;;;;;;;8.45;100.00;101436.44;6246870;23;20300;-76
2023/03/21 04:35:55;;;;;;;17.00;9.43;;;;;;;8.50;100.00;101437.94;6246738;23;20015;-73
2023/03/21 04:38:29;;;;;;;17.98;8.68;;;;;;;8.49;100.00;101438.84;6246621;23;20876;-75
2023/03/21 04:40:55;;;;;;;16.23;10.25;;;;;;;8.32;100.00;101408.66;6247058;23;20004;-75
2023/03/21 04:43:22;;;;;;;20.27;10.00;;;;;;;8.40;100.00;101417.81;6247147;23;20078;-73
2023/03/21 04:45:48;;;;;;;15.00;8.35;;;;;;;8.46;100.00;101427.84;6247011;23;20031;-75
2023/03/21 04:48:13;;;;;;;17.52;8.45;;;;;;;8.49;100.00;101428.53;6246739;23;20414;-76
2023/03/21 04:50:38;;;;;;;17.33;9.55;;;;;;;8.49;100.00;101431.13;6246536;23;20008;-75
2023/03/21 04:53:04;;;;;;;21.77;9.40;;;;;;;8.50;100.00;101425.06;6246771;23;20050;-76
2023/03/21 04:55:30;;;;;;;17.83;9.35;;;;;;;8.51;100.00;101420.75;6247052;23;20024;-74
2023/03/21 04:57:56;;;;;;;16.98;9.82;;;;;;;8.23;100.00;101375.63;6246568;23;20004;-76
2023/03/21 05:00:22;;;;;;;16.98;9.70;;;;;;;8.44;100.00;101407.31;6246911;23;20038;-73
2023/03/21 05:02:47;;;;;;;17.40;9.25;;;;;;;8.52;100.00;101418.09;6246551;23;20008;-73
2023/03/21 05:05:13;;;;;;;20.40;9.80;;;;;;;8.39;100.00;101398.97;6246385;23;20034;-75
2023/03/21 05:07:40;;;;;;;21.27;10.20;;;;;;;8.45;100.00;101403.81;6246593;23;20004;-75
2023/03/21 05:10:07;;;;;;;18.30;8.80;;;;;;;8.48;100.00;101406.28;6246653;23;20007;-76
2023/03/21 05:12:32;;;;;;;16.55;8.98;;;;;;;8.54;100.00;101405.16;6246318;23;20061;-76
2023/03/21 05:14:58;;;;;;;20.95;10.30;;;;;;;8.33;100.00;101376.03;6246973;23;20046;-74
2023/03/21 05:17:23;;;;;;;15.45;9.40;;;;;;;8.51;100.00;101402.72;6246506;23;20031;-73
2023/03/21 05:19:51;;;;;;;17.60;9.13;;;;;;;8.55;100.00;101411.97;6246280;23;20050;-74
2023/03/21 05:22:18;;;;;;;19.55;9.68;;;;;;;8.47;100.00;101402.03;6246593;23;20011;-72
2023/03/21 05:24:48;;;;;;;20.05;9.48;;;;;;;8.51;100.00;101413.03;6219188;23;20030;-76
2023/03/21 05:27:32;;;;;;;20.48;11.02;;;;;;;8.55;100.00;101412.84;6246207;23;20031;-76
2023/03/21 05:30:08;;;;;;;18.92;9.32;;;;;;;8.52;100.00;101407.81;6246571;23;20106;-72
2023/03/21 05:32:34;;;;;;;19.38;9.20;;;;;;;8.52;100.00;101404.41;6246193;23;20004;-76
2023/03/21 05:35:00;;;;;;;20.52;8.98;;;;;;;8.50;100.00;101396.75;6246464;23;20007;-76
2023/03/21 05:37:25;;;;;;;18.77;9.10;;;;;;;8.49;100.00;101400.22;6246092;23;20423;-72
2023/03/21 05:39:51;;;;;;;17.90;9.30;;;;;;;8.60;100.00;101410.88;6246389;23;20000;-74
2023/03/21 05:42:19;;;;;;;15.23;7.85;;;;;;;8.52;100.00;101389.78;6246134;23;20010;-74
2023/03/21 05:44:45;;;;;;;18.25;8.23;;;;;;;8.50;100.00;101383.03;6246247;23;20000;-75
2023/03/21 05:47:15;;;;;;;17.70;9.23;;;;;;;8.63;100.00;101405.56;6245980;23;20126;-75
2023/03/21 05:49:41;;;;;;;16.90;8.70;;;;;;;8.57;100.00;101405.88;6245835;23;20008;-75
2023/03/21 05:52:07;;;;;;;17.20;8.50;;;;;;;8.64;100.00;101403.84;6245973;23;20000;-76
2023/03/21 05:54:32;;;;;;;17.25;7.40;;;;;;;8.68;100.00;101409.69;6245871;23;20005;-76
2023/03/21 05:56:58;;;;;;;17.48;7.90;;;;;;;8.69;100.00;101407.03;6246082;23;20000;-76
2023/03/21 05:59:23;;;;;;;18.08;8.00;;;;;;;8.69;100.00;101404.47;6246413;23;20054;-73
2023/03/21 06:01:49;;;;;;;15.90;8.27;;;;;;;8.56;100.00;101386.19;6246017;23;20330;-72
2023/03/21 06:04:14;;;;;;;16.75;7.90;;;;;;;8.68;100.00;101404.53;6246239;23;20299;-76
2023/03/21 06:06:39;;;;;;;14.93;7.65;;;;;;;8.73;100.00;101410.31;6245765;23;20008;-75
2023/03/21 06:09:05;;;;;;;17.10;8.57;;;;;;;8.73;100.00;101411.13;6218963;23;20374;-73
2023/03/21 06:11:34;;;;;;;16.08;8.55;;;;;;;8.74;100.00;101412.81;6218768;23;20075;-72
2023/03/21 06:13:59;;;;;;;12.02;7.22;;;;;;;8.77;100.00;101406.69;6246147;23;19999;-75
2023/03/21 06:16:24;;;;;;;13.38;7.78;;;;;;;8.80;100.00;101406.56;6245662;23;20410;-76
2023/03/21 06:18:50;;;;;;;16.80;7.03;;;;;;;8.83;100.00;101402.09;6246067;23;20437;-74
2023/03/21 06:21:15;;;;;;;16.70;7.18;;;;;;;8.85;100.00;101413.16;6245725;23;20004;-73
2023/03/21 06:23:40;;;;;;;15.00;7.00;;;;;;;8.87;100.00;101413.94;6245415;23;20331;-73
2023/03/21 06:26:06;;;;;;;18.30;7.90;;;;;;;8.87;100.00;101406.19;6245345;23;20016;-75
2023/03/21 06:28:32;;;;;;;15.05;7.43;;;;;;;8.88;100.00;101407.88;6245908;23;20000;-73
2023/03/21 06:30:57;;;;;;;15.38;7.15;;;;;;;8.94;100.00;101413.63;6218638;23;20003;-75
2023/03/21 06:33:23;;;;;;;15.27;7.68;;;;;;;8.84;100.00;101398.59;6246017;23;20050;-76
2023/03/21 06:35:53;;;;;;;15.43;6.70;;;;;;;8.99;100.00;101422.81;6245592;23;20082;-73
2023/03/21 06:38:18;;;;;;;12.38;6.65;;;;;;;9.03;100.00;101416.59;6245275;23;20349;-76
2023/03/21 06:40:48;;;;;;;13.63;6.60;;;;;;;9.05;100.00;101424.28;6245550;23;20031;-73
2023/03/21 06:43:15;;;;;;;15.55;6.90;;;;;;;9.01;100.00;101410.69;6245595;23;20061;-75
2023/03/21 06:45:40;;;;;;;15.05;6.78;;;;;;;9.00;100.00;101408.19;6245628;23;20000;-76
2023/03/21 06:48:06;;;;;;;16.60;7.53;;;;;;;9.12;100.00;101423.06;6245498;23;20004;-73
2023/03/21 06:50:31;;;;;;;14.43;7.25;;;;;;;9.10;100.00;101418.00;6245595;23;20000;-75
2023/03/21 06:52:58;;;;;;;18.90;7.75;;;;;;;9.09;100.00;101416.31;6245218;23;20000;-77
2023/03/21 06:55:25;;;;;;;15.80;7.72;;;;;;;8.98;100.00;101407.44;6245286;23;20066;-76
2023/03/21 06:57:52;;;;;;;16.83;6.90;;;;;;;8.99;100.00;101407.38;6245649;23;20030;-76
2023/03/21 07:00:18;;;;;;;15.05;7.90;;;;;;;9.08;100.00;101421.56;6245479;23;20012;-76
2023/03/21 07:02:45;;;;;;;13.10;7.07;;;;;;;9.06;100.00;101424.22;6218617;23;20046;-76
2023/03/21 07:05:10;;;;;;;14.30;7.60;;;;;;;9.06;100.00;101425.97;6245502;23;20329;-75
2023/03/21 07:07:36;;;;;;;16.50;7.90;;;;;;;8.97;100.00;101413.50;6245266;23;20015;-77
2023/03/21 07:10:02;;;;;;;18.13;8.52;;;;;;;8.91;100.00;101407.72;6244478;23;20088;-74
2023/03/21 07:12:27;;;;;;;18.05;7.90;;;;;;;8.97;100.00;101416.06;6246112;23;20497;-76
2023/03/21 07:14:53;;;;;;;13.82;7.35;;;;;;;9.05;100.00;101432.84;6246000;23;20053;-77
2023/03/21 07:17:18;;;;;;;17.88;7.68;;;;;;;9.07;100.00;101438.75;6245288;23;20126;-72
2023/03/21 07:19:44;;;;;;;17.38;8.20;;;;;;;9.07;100.00;101438.75;6245604;23;20004;-74
2023/03/21 07:22:09;;;;;;;18.02;7.90;;;;;;;9.10;100.00;101430.88;6245387;23;20000;-72
2023/03/21 07:24:34;;;;;;;16.38;8.18;;;;;;;9.12;100.00;101435.94;6244879;23;20018;-75
2023/03/21 07:27:00;;;;;;;20.02;8.23;;;;;;;9.16;100.00;101437.50;6245021;23;20004;-76
2023/03/21 07:29:25;;;;;;;17.90;8.77;;;;;;;9.19;100.00;101440.75;6245361;23;20004;-77
2023/03/21 07:31:50;;;;;;;19.65;9.68;;;;;;;9.03;100.00;101408.03;6245333;23;20004;-75
2023/03/21 07:34:17;;;;;;;16.83;7.68;;;;;;;9.28;100.00;101433.50;6245455;23;20004;-75
2023/03/21 07:36:43;;;;;;;19.67;8.98;;;;;;;9.27;100.00;101437.81;6245033;23;20434;-77
2023/03/21 07:39:08;;;;;;;18.20;8.75;;;;;;;9.31;100.00;101441.91;6244364;23;20011;-76
2023/03/21 07:41:33;;;;;;;21.27;9.57;;;;;;;8.85;100.00;101369.38;6254385;22;20012;-69
2023/03/21 07:43:59;;;;;;;17.40;8.75;;;;;;;9.29;100.00;101436.00;6275834;22;20008;-73
2023/03/21 07:46:27;;;;;;;17.13;8.40;;;;;;;9.29;100.00;101430.84;6275578;22;20046;-73
2023/03/21 07:48:54;;;;;;;16.65;8.57;;;;;;;9.27;100.00;101432.66;6276386;22;20033;-76
2023/03/21 07:51:20;;;;;;;16.55;8.45;;;;;;;9.28;100.00;101424.03;6278283;22;20011;-73
2023/03/21 07:53:47;;;;;;;15.55;8.82;;;;;;;9.35;100.00;101429.72;6277482;22;20321;-76
2023/03/21 07:56:13;;;;;;;19.70;7.82;;;;;;;9.35;100.00;101414.25;6277777;22;20012;-72
2023/03/21 07:58:38;;;;;;;12.90;8.35;;;;;;;9.48;100.00;101420.47;6277940;22;20008;-78
2023/03/21 08:01:04;;;;;;;19.20;9.50;;;;;;;9.49;100.00;101425.56;6278053;22;20004;-77
2023/03/21 08:03:32;;;;;;;15.85;8.75;;;;;;;9.48;100.00;101415.31;6277750;22;20011;-76
2023/03/21 08:06:00;;;;;;;14.18;7.53;;;;;;;9.46;100.00;101410.25;6277763;22;20003;-77
2023/03/21 08:08:25;;;;;;;16.65;7.78;;;;;;;9.39;100.00;101401.13;6277452;22;20030;-76
2023/03/21 08:10:51;;;;;;;16.67;8.43;;;;;;;9.35;100.00;101384.16;6277921;22;20003;-74
2023/03/21 08:13:16;;;;;;;16.15;8.40;;;;;;;9.46;100.00;101406.84;6278718;22;20049;-76
2023/03/21 08:15:42;;;;;;;14.50;7.80;;;;;;;9.50;100.00;101400.59;6278529;22;20421;-76
2023/03/21 08:18:07;;;;;;;20.15;8.35;;;;;;;9.55;100.00;101400.41;6278519;22;20007;-76
2023/03/21 08:20:33;;;;;;;18.85;8.77;;;;;;;9.54;100.00;101380.66;6278335;22;19999;-77
2023/03/21 08:22:58;;;;;;;17.58;8.35;;;;;;;9.64;100.00;101382.72;6275993;22;20421;-77
2023/03/21 08:25:24;;;;;;;17.70;9.30;;;;;;;9.73;100.00;101382.25;6278331;22;20023;-75
2023/03/21 08:27:50;;;;;;;16.98;9.38;;;;;;;9.64;100.00;101356.09;6277651;22;20011;-73
2023/03/21 08:30:21;;;;;;;20.02;9.60;;;;;;;9.79;100.00;101370.78;6278110;22;20010;-76
2023/03/21 08:32:47;;;;;;;16.65;9.13;;;;;;;9.82;100.00;101375.78;6278718;22;20067;-75
2023/03/21 08:35:15;;;;;;;20.83;9.55;;;;;;;9.85;100.00;101375.63;6278185;22;20456;-76
2023/03/21 08:37:40;;;;;;;16.70;9.40;;;;;;;9.89;100.00;101360.81;6278026;22;20036;-76
2023/03/21 08:40:10;;;;;;;15.80;9.23;;;;;;;9.97;100.00;101380.16;6277998;22;20022;-78
2023/03/21 08:42:40;;;;;;;19.80;9.30;;;;;;;10.03;100.00;101372.13;6278399;22;20007;-76
2023/03/21 08:45:07;;;;;;;18.65;9.38;;;;;;;9.92;100.00;101353.75;6250843;22;20085;-74
2023/03/21 08:47:32;;;;;;;16.80;8.65;;;;;;;9.91;100.00;101366.72;6278155;22;20019;-75
2023/03/21 08:50:00;;;;;;;19.23;8.77;;;;;;;9.87;100.00;101362.66;6277906;22;20000;-75
2023/03/21 08:52:26;;;;;;;16.00;8.35;;;;;;;9.95;100.00;101374.25;6277871;22;20004;-76
2023/03/21 08:54:55;;;;;;;14.52;8.05;;;;;;;9.84;100.00;101355.09;6251152;22;20007;-75
2023/03/21 08:57:20;;;;;;;17.42;8.18;;;;;;;9.90;100.00;101368.47;6277885;22;20004;-73
2023/03/21 08:59:46;;;;;;;15.77;8.23;;;;;;;9.78;100.00;101340.75;6278236;22;20010;-77
2023/03/21 09:02:16;;;;;;;13.73;7.95;;;;;;;9.93;100.00;101357.16;6277302;22;20090;-77
2023/03/21 09:04:42;;;;;;;19.20;7.90;;;;;;;9.85;100.00;101344.69;6277020;22;20004;-77
2023/03/21 09:07:10;;;;;;;12.25;6.75;;;;;;;9.94;100.00;101351.13;6277335;22;20007;-78
2023/03/21 09:09:38;;;;;;;13.40;6.60;;;;;;;9.89;100.00;101338.44;6277565;22;20010;-75
2023/03/21 09:12:04;;;;;;;15.05;7.40;;;;;;;10.03;100.00;101342.91;6277775;22;20004;-76
2023/03/21 09:14:29;;;;;;;15.18;7.00;;;;;;;10.10;100.00;101346.81;6277965;22;20358;-75
2023/03/21 09:16:55;;;;;;;14.80;6.72;;;;;;;10.23;100.00;101353.03;6278128;22;20421;-73
2023/03/21 09:19:20;;;;;;;16.05;7.10;;;;;;;10.25;100.00;101343.47;6277792;22;20421;-78
2023/03/21 09:21:46;;;;;;;14.27;6.80;;;;;;;10.19;100.00;101330.00;6250088;22;20023;-77
2023/03/21 09:24:12;;;;;;;14.23;7.50;;;;;;;10.24;100.00;101325.47;6278131;22;20070;-75
2023/03/21 09:26:38;;;;;;;14.93;7.40;;;;;;;10.49;100.00;101349.03;6277733;22;20003;-77
2023/03/21 09:29:04;;;;;;;12.73;6.75;;;;;;;10.47;100.00;101325.06;6277592;22;20000;-78
2023/03/21 09:31:30;;;;;;;12.35;7.10;;;;;;;10.77;100.00;101345.78;6277784;22;20027;-78
2023/03/21 09:33:56;;;;;;;12.90;7.05;;;;;;;10.75;100.00;101318.38;6277555;22;20006;-77
2023/03/21 09:36:25;;;;;;;16.50;7.85;;;;;;;10.81;100.00;101321.44;6250669;22;20476;-78
2023/03/21 09:38:50;;;;;;;14.18;7.25;;;;;;;10.95;100.00;101340.50;6277821;22;20000;-76
2023/03/21 09:41:25;;;;;;;13.60;7.43;;;;;;;10.98;100.00;101332.56;6277696;22;20053;-76
2023/03/21 09:44:16;;;;;;;12.32;6.53;;;;;;;10.88;100.00;101317.59;6277533;22;20003;-76
2023/03/21 09:46:47;;;;;;;17.50;7.53;;;;;;;11.07;100.00;101335.47;6277452;22;20011;-76
2023/03/21 09:49:19;;;;;;;13.30;6.13;;;;;;;11.12;100.00;101325.72;6250794;22;20034;-77
2023/03/21 09:51:51;;;;;;;13.38;6.30;;;;;;;10.87;100.00;101291.84;6250632;22;20014;-77
2023/03/21 09:54:25;;;;;;;10.85;6.45;;;;;;;11.09;100.00;101317.28;6250353;22;20007;-77
2023/03/21 09:56:55;;;;;;;12.93;6.20;;;;;;;11.06;100.00;101310.56;6277320;22;20019;-78
2023/03/21 09:59:27;;;;;;;13.35;6.38;;;;;;;10.97;100.00;101316.25;6277454;22;20000;-79
2023/03/21 10:01:54;;;;;;;12.07;5.78;;;;;;;10.91;100.00;101311.41;6277385;22;20011;-78
2023/03/21 10:04:21;;;;;;;14.48;6.20;;;;;;;10.87;100.00;101308.19;6277361;22;19999;-77
2023/03/21 10:06:57;;;;;;;12.70;6.00;;;;;;;10.96;100.00;101313.75;6277159;22;20329;-77
2023/03/21 10:09:23;;;;;;;11.07;6.15;;;;;;;11.08;100.00;101305.28;6277576;22;20003;-77
2023/03/21 10:12:01;;;;;;;13.38;6.22;;;;;;;11.21;100.00;101301.09;6276909;22;20000;-77
2023/03/21 10:14:30;;;;;;;10.88;5.97;;;;;;;11.31;99.94;101301.41;6277149;22;20004;-77
2023/03/21 10:17:33;;;;;;;13.45;6.07;;;;;;;11.43;99.24;101298.09;6277390;22;20359;-77
2023/03/21 10:20:17;;;;;;;11.55;5.85;;;;;;;11.56;99.14;101301.59;6183681;23;20081;-76
2023/03/21 10:22:46;;;;;;;11.10;5.50;;;;;;;11.56;97.36;101290.41;6183557;23;20068;-77
2023/03/21 10:25:20;;;;;;;12.15;5.93;;;;;;;11.67;97.76;101301.78;6183178;23;20068;-77
2023/03/21 10:27:46;;;;;;;12.55;6.13;;;;;;;11.66;95.97;101271.66;6183471;23;20083;-75
2023/03/21 10:30:23;;;;;;;13.07;6.93;;;;;;;11.79;96.60;101292.44;6183384;23;20005;-77
2023/03/21 10:32:49;;;;;;;11.93;5.63;;;;;;;11.86;97.05;101288.59;6183860;23;20012;-77
2023/03/21 10:35:14;;;;;;;8.38;5.20;;;;;;;11.96;95.10;101286.28;6183593;23;20008;-77
2023/03/21 10:37:40;;;;;;;10.80;5.47;;;;;;;12.09;94.57;101288.94;6183344;23;20091;-77
2023/03/21 10:40:07;;;;;;;11.68;6.05;;;;;;;12.19;95.56;101293.47;6183387;23;20005;-77
2023/03/21 10:42:35;;;;;;;12.55;5.65;;;;;;;12.38;94.66;101295.72;6183252;23;20028;-77
2023/03/21 10:45:01;;;;;;;9.93;5.82;;;;;;;12.40;94.16;101275.75;6183663;23;20018;-79
2023/03/21 10:47:30;;;;;;;12.70;5.40;;;;;;;12.51;91.65;101280.25;6183438;23;20009;-77
2023/03/21 10:50:04;;;;;;;10.75;5.93;;;;;;;12.65;91.41;101300.91;6183397;22;20009;-79
2023/03/21 10:52:32;;;;;;;11.50;5.45;;;;;;;12.60;90.36;101295.22;6183598;23;20047;-78
2023/03/21 10:55:15;;;;;;;10.57;5.03;;;;;;;12.52;90.32;101292.28;6158425;23;20009;-77
2023/03/21 10:57:40;;;;;;;10.23;5.70;;;;;;;12.40;91.60;101298.25;6272690;22;20373;-78
2023/03/21 11:00:15;;;;;;;10.82;5.40;;;;;;;12.28;90.52;101290.28;6277232;22;20000;-78
2023/03/21 11:02:42;;;;;;;12.95;5.28;;;;;;;12.34;90.27;101294.25;6277171;22;20050;-78
2023/03/21 11:05:24;;;;;;;15.88;5.88;;;;;;;12.28;91.46;101266.97;6277277;22;20004;-78
2023/03/21 11:08:01;;;;;;;13.60;5.97;;;;;;;12.62;91.35;101290.75;6277081;22;20007;-77
2023/03/21 11:10:47;;;;;;;11.88;5.18;;;;;;;12.61;88.70;101278.72;6275852;22;20404;-77
2023/03/21 11:13:25;;;;;;;11.13;5.25;;;;;;;12.61;89.62;101260.59;6249457;22;20134;-79
2023/03/21 11:15:57;;;;;;;12.45;4.93;;;;;;;12.89;88.25;101276.00;6276652;22;19999;-78
2023/03/21 11:18:25;;;;;;;10.63;5.10;;;;;;;12.92;86.83;101286.19;6277042;22;20332;-77
2023/03/21 11:20:57;;;;;;;9.10;4.95;;;;;;;12.96;86.79;101291.16;6276524;22;20049;-78